createdAt,value
2022-10-17T00:01:14.678Z,15.30
2022-10-17T00:06:15.995Z,15.30
2022-10-17T00:08:45.967Z,15.30
2022-10-17T00:11:19.492Z,15.30
2022-10-17T00:16:23.945Z,15.30
2022-10-17T00:18:52.276Z,15.30
2022-10-17T00:21:23.307Z,15.30
2022-10-17T00:28:50.422Z,15.30
2022-10-17T00:31:21.917Z,15.20
2022-10-17T00:33:52.006Z,15.20
2022-10-17T00:36:24.286Z,15.20
2022-10-17T00:38:56.552Z,15.10
2022-10-17T00:41:27.692Z,15.10
2022-10-17T00:43:59.875Z,15.10
2022-10-17T00:46:31.374Z,15.10
2022-10-17T00:49:07.782Z,15.00
2022-10-17T00:51:43.313Z,15.00
2022-10-17T00:54:14.757Z,14.90
2022-10-17T00:56:43.700Z,14.90
2022-10-17T00:59:14.761Z,14.80
2022-10-17T01:01:48.030Z,14.80
2022-10-17T01:06:46.421Z,14.80
2022-10-17T01:11:53.347Z,14.80
2022-10-17T01:14:32.306Z,14.80
2022-10-17T01:17:10.855Z,14.70
2022-10-17T01:20:16.547Z,14.70
2022-10-17T01:22:52.985Z,14.70
2022-10-17T01:25:36.136Z,14.80
2022-10-17T01:28:30.600Z,14.80
2022-10-17T01:31:09.021Z,14.70
2022-10-17T01:33:54.637Z,14.70
2022-10-17T01:36:37.647Z,14.70
2022-10-17T01:39:16.934Z,14.70
2022-10-17T01:41:53.759Z,14.60
2022-10-17T01:44:28.496Z,14.60
2022-10-17T01:47:04.308Z,14.60
2022-10-17T01:49:36.272Z,14.80
2022-10-17T01:52:09.875Z,14.50
2022-10-17T01:54:43.617Z,14.60
2022-10-17T01:57:19.193Z,14.60
2022-10-17T01:59:51.181Z,14.60
2022-10-17T02:02:22.297Z,14.60
2022-10-17T02:04:53.338Z,14.60
2022-10-17T02:07:21.681Z,14.60
2022-10-17T02:12:46.551Z,14.60
2022-10-17T02:15:57.883Z,14.50
2022-10-17T02:19:01.772Z,14.50
2022-10-17T02:21:41.372Z,14.50
2022-10-17T02:24:20.594Z,14.50
2022-10-17T02:26:57.664Z,14.40
2022-10-17T02:29:31.489Z,14.40
2022-10-17T02:32:05.753Z,14.40
2022-10-17T02:34:39.650Z,14.40
2022-10-17T02:37:11.712Z,14.30
2022-10-17T02:39:43.677Z,14.30
2022-10-17T02:42:16.028Z,14.30
2022-10-17T02:44:46.471Z,14.30
2022-10-17T02:47:23.289Z,14.30
2022-10-17T02:49:56.179Z,14.40
2022-10-17T02:52:31.250Z,14.40
2022-10-17T02:55:07.612Z,14.40
2022-10-17T02:57:39.913Z,14.50
2022-10-17T03:00:13.178Z,14.50
2022-10-17T03:02:44.851Z,14.60
2022-10-17T03:05:18.520Z,14.60
2022-10-17T03:12:44.663Z,14.70
2022-10-17T03:15:15.016Z,14.60
2022-10-17T03:20:16.712Z,14.50
2022-10-17T03:25:13.521Z,14.40
2022-10-17T03:27:41.892Z,14.40
2022-10-17T03:30:11.527Z,14.30
2022-10-17T03:32:40.288Z,14.30
2022-10-17T03:35:12.617Z,14.20
2022-10-17T03:37:46.734Z,14.20
2022-10-17T03:50:12.371Z,14.00
2022-10-17T03:52:41.353Z,14.00
2022-10-17T03:55:11.752Z,13.90
2022-10-17T04:00:15.074Z,13.90
2022-10-17T04:10:20.509Z,13.70
2022-10-17T04:25:15.431Z,13.50
2022-10-17T04:27:49.002Z,13.50
2022-10-17T04:30:18.022Z,13.50
2022-10-17T04:40:25.030Z,13.50
2022-10-17T04:42:55.581Z,13.50
2022-10-17T04:50:32.201Z,13.40
2022-10-17T04:58:31.480Z,13.30
2022-10-17T05:10:57.072Z,13.30
2022-10-17T05:13:25.376Z,13.30
2022-10-17T05:15:55.100Z,13.30
2022-10-17T05:20:51.957Z,13.20
2022-10-17T05:33:15.888Z,13.10
2022-10-17T05:35:44.181Z,13.10
2022-10-17T05:45:42.501Z,13.10
2022-10-17T05:48:16.913Z,13.10
2022-10-17T05:53:17.487Z,13.10
2022-10-17T05:55:58.356Z,13.10
2022-10-17T06:04:04.790Z,13.10
2022-10-17T06:09:02.689Z,13.10
2022-10-17T06:11:34.821Z,13.20
2022-10-17T06:14:03.324Z,13.20
2022-10-17T06:16:32.145Z,13.20
2022-10-17T06:21:34.311Z,13.20
2022-10-17T06:24:14.631Z,13.20
2022-10-17T06:29:14.905Z,13.40
2022-10-17T06:31:51.900Z,13.40
2022-10-17T06:34:21.150Z,13.50
2022-10-17T06:36:50.815Z,13.60
2022-10-17T06:39:20.597Z,13.80
2022-10-17T06:42:05.560Z,13.90
2022-10-17T06:53:12.083Z,14.40
2022-10-17T06:59:00.947Z,14.80
2022-10-17T07:06:36.005Z,15.30
2022-10-17T07:09:11.717Z,15.30
2022-10-17T07:11:40.180Z,15.60
2022-10-17T07:14:08.649Z,15.70
2022-10-17T07:19:32.072Z,16.00
2022-10-17T07:22:00.484Z,16.20
2022-10-17T07:24:30.426Z,16.40
2022-10-17T07:27:06.392Z,16.40
2022-10-17T07:32:10.665Z,16.40
2022-10-17T07:34:39.197Z,16.50
2022-10-17T07:37:09.900Z,16.60
2022-10-17T07:39:41.661Z,16.80
2022-10-17T07:42:11.803Z,16.90
2022-10-17T07:47:08.598Z,17.00
2022-10-17T07:49:42.381Z,17.00
2022-10-17T07:52:12.040Z,17.10
2022-10-17T07:54:41.894Z,17.20
2022-10-17T07:59:39.693Z,17.50
2022-10-17T08:04:39.089Z,17.70
2022-10-17T08:07:21.001Z,17.80
2022-10-17T08:09:53.022Z,18.00
2022-10-17T08:12:21.249Z,18.20
2022-10-17T08:14:49.508Z,18.50
2022-10-17T08:19:46.234Z,19.00
2022-10-17T08:22:14.418Z,19.30
2022-10-17T08:27:14.356Z,19.60
2022-10-17T08:29:42.656Z,19.70
2022-10-17T08:32:10.872Z,19.80
2022-10-17T08:39:36.316Z,19.80
2022-10-17T08:42:33.732Z,19.80
2022-10-17T08:45:14.657Z,19.80
2022-10-17T08:47:47.158Z,19.80
2022-10-17T08:50:24.933Z,19.80
2022-10-17T08:52:56.823Z,19.80
2022-10-17T08:55:34.193Z,19.80
2022-10-17T08:58:03.805Z,20.00
2022-10-17T09:00:33.724Z,20.00
2022-10-17T09:03:20.884Z,20.00
2022-10-17T09:05:55.734Z,20.00
2022-10-17T09:08:32.945Z,20.00
2022-10-17T09:11:08.706Z,20.00
2022-10-17T09:14:01.304Z,20.20
2022-10-17T09:16:51.612Z,20.40
2022-10-17T09:19:26.519Z,20.50
2022-10-17T09:21:59.917Z,20.80
2022-10-17T09:24:41.065Z,21.00
2022-10-17T09:27:23.278Z,21.10
2022-10-17T09:30:40.188Z,21.10
2022-10-17T09:33:23.339Z,21.10
2022-10-17T09:36:03.559Z,21.30
2022-10-17T09:38:40.623Z,21.60
2022-10-17T09:41:44.232Z,21.80
2022-10-17T09:44:21.759Z,22.20
2022-10-17T09:47:17.331Z,22.40
2022-10-17T09:49:47.276Z,22.30
2022-10-17T09:52:18.888Z,22.60
2022-10-17T09:54:49.389Z,22.60
2022-10-17T09:57:20.314Z,22.70
2022-10-17T09:59:58.925Z,22.90
2022-10-17T10:02:32.641Z,23.10
2022-10-17T10:05:06.677Z,23.30
2022-10-17T10:07:39.072Z,23.40
2022-10-17T10:10:27.755Z,23.50
2022-10-17T10:13:21.356Z,23.60
2022-10-17T10:15:52.110Z,23.80
2022-10-17T10:18:36.831Z,23.90
2022-10-17T10:21:13.231Z,23.90
2022-10-17T10:23:43.720Z,24.10
2022-10-17T10:26:24.220Z,24.20
2022-10-17T10:29:03.240Z,24.30
2022-10-17T10:31:36.800Z,24.30
2022-10-17T10:34:19.527Z,24.40
2022-10-17T10:36:57.360Z,24.50
2022-10-17T10:39:47.032Z,24.50
2022-10-17T10:42:27.661Z,24.60
2022-10-17T10:45:02.449Z,24.70
2022-10-17T10:47:32.607Z,24.80
2022-10-17T10:50:28.112Z,24.90
2022-10-17T10:53:23.279Z,25.00
2022-10-17T10:55:56.111Z,25.10
2022-10-17T10:58:43.444Z,25.10
2022-10-17T11:01:21.566Z,24.90
2022-10-17T11:04:06.064Z,24.90
2022-10-17T11:06:40.155Z,25.00
2022-10-17T11:09:24.445Z,25.20
2022-10-17T11:12:01.550Z,25.30
2022-10-17T11:14:41.231Z,25.50
2022-10-17T11:17:18.744Z,25.50
2022-10-17T11:19:53.393Z,25.60
2022-10-17T11:22:29.410Z,25.60
2022-10-17T11:25:03.866Z,25.60
2022-10-17T11:27:32.801Z,25.60
2022-10-17T11:32:36.049Z,25.70
2022-10-17T11:35:15.912Z,25.80
2022-10-17T11:37:51.649Z,25.80
2022-10-17T11:40:29.847Z,25.90
2022-10-17T11:43:02.553Z,26.00
2022-10-17T11:45:44.244Z,26.10
2022-10-17T11:48:21.702Z,26.10
2022-10-17T11:53:58.024Z,26.40
2022-10-17T11:56:41.846Z,26.60
2022-10-17T11:59:48.656Z,26.60
2022-10-17T12:02:28.679Z,26.70
2022-10-17T12:05:05.689Z,26.60
2022-10-17T12:10:35.101Z,26.60
2022-10-17T12:13:51.565Z,26.70
2022-10-17T12:16:46.833Z,26.80
2022-10-17T12:19:36.826Z,26.90
2022-10-17T12:22:19.448Z,26.90
2022-10-17T12:24:57.836Z,27.00
2022-10-17T12:27:46.186Z,27.10
2022-10-17T12:30:24.653Z,27.20
2022-10-17T12:33:21.798Z,27.10
2022-10-17T12:35:52.060Z,27.10
2022-10-17T12:38:28.533Z,27.00
2022-10-17T12:41:14.461Z,27.10
2022-10-17T12:43:54.808Z,27.20
2022-10-17T12:46:59.613Z,27.30
2022-10-17T12:49:51.097Z,27.30
2022-10-17T12:52:41.978Z,27.40
2022-10-17T12:55:15.527Z,27.50
2022-10-17T12:57:52.295Z,27.60
2022-10-17T13:00:34.774Z,27.60
2022-10-17T13:03:13.925Z,27.70
2022-10-17T13:05:49.586Z,27.60
2022-10-17T13:08:22.953Z,27.60
2022-10-17T13:10:54.665Z,27.60
2022-10-17T13:13:28.448Z,27.50
2022-10-17T13:15:58.060Z,27.70
2022-10-17T13:18:28.911Z,27.70
2022-10-17T13:21:00.205Z,27.60
2022-10-17T13:23:33.814Z,27.60
2022-10-17T13:26:14.435Z,27.60
2022-10-17T13:28:43.593Z,27.70
2022-10-17T13:34:06.777Z,27.50
2022-10-17T13:36:36.483Z,27.50
2022-10-17T13:39:12.202Z,27.50
2022-10-17T13:41:43.541Z,27.50
2022-10-17T13:44:19.927Z,27.50
2022-10-17T13:46:48.929Z,27.40
2022-10-17T13:49:26.005Z,27.40
2022-10-17T13:51:57.321Z,27.40
2022-10-17T13:54:37.616Z,27.30
2022-10-17T13:57:07.575Z,27.30
2022-10-17T13:59:40.544Z,27.20
2022-10-17T14:02:16.924Z,27.20
2022-10-17T14:08:09.316Z,27.00
2022-10-17T14:10:37.411Z,27.00
2022-10-17T14:13:08.140Z,26.90
2022-10-17T14:15:37.970Z,26.70
2022-10-17T14:18:09.300Z,26.50
2022-10-17T14:23:36.169Z,26.00
2022-10-17T14:26:15.243Z,25.80
2022-10-17T14:28:47.284Z,25.60
2022-10-17T14:31:31.543Z,25.50
2022-10-17T14:34:01.107Z,25.40
2022-10-17T14:36:39.806Z,25.40
2022-10-17T14:39:19.425Z,25.20
2022-10-17T14:41:48.763Z,25.20
2022-10-17T14:44:30.260Z,25.10
2022-10-17T14:47:18.286Z,24.90
2022-10-17T14:49:52.482Z,24.80
2022-10-17T14:52:33.439Z,24.70
2022-10-17T14:55:23.899Z,24.50
2022-10-17T15:00:23.032Z,24.30
2022-10-17T15:02:53.729Z,24.10
2022-10-17T15:05:23.285Z,24.00
2022-10-17T15:07:53.477Z,24.00
2022-10-17T15:10:33.672Z,23.90
2022-10-17T15:15:52.316Z,23.90
2022-10-17T15:18:20.920Z,23.90
2022-10-17T15:23:34.397Z,24.00
2022-10-17T15:26:02.871Z,24.00
2022-10-17T15:28:31.177Z,24.10
2022-10-17T15:33:28.027Z,24.20
2022-10-17T15:38:29.740Z,24.20
2022-10-17T15:40:59.337Z,24.10
2022-10-17T15:43:27.520Z,24.10
2022-10-17T15:45:55.798Z,23.90
2022-10-17T15:48:33.496Z,23.90
2022-10-17T15:53:30.300Z,23.60
2022-10-17T15:56:00.759Z,23.50
2022-10-17T15:58:35.105Z,23.40
2022-10-17T16:01:03.984Z,23.40
2022-10-17T16:03:32.646Z,23.20
2022-10-17T16:06:01.314Z,23.00
2022-10-17T16:08:29.511Z,22.90
2022-10-17T16:10:59.544Z,22.80
2022-10-17T16:13:27.916Z,22.80
2022-10-17T16:15:56.119Z,22.60
2022-10-17T16:18:24.295Z,22.50
2022-10-17T16:20:52.555Z,22.50
2022-10-17T16:23:20.763Z,22.40
2022-10-17T16:25:48.939Z,22.30
2022-10-17T16:28:18.489Z,22.20
2022-10-17T16:30:46.668Z,22.10
2022-10-17T16:33:14.951Z,22.10
2022-10-17T16:35:43.550Z,21.00
2022-10-17T16:40:40.783Z,21.90
2022-10-17T16:43:11.760Z,21.70
2022-10-17T16:45:42.159Z,21.70
2022-10-17T16:48:12.308Z,21.60
2022-10-17T16:50:41.397Z,21.60
2022-10-17T16:55:38.162Z,21.40
2022-10-17T16:58:06.336Z,21.40
2022-10-17T17:00:34.605Z,21.30
2022-10-17T17:03:04.251Z,21.20
2022-10-17T17:05:32.477Z,21.10
2022-10-17T17:08:00.918Z,21.10
2022-10-17T17:10:29.154Z,21.00
2022-10-17T17:12:57.328Z,20.90
2022-10-17T17:20:25.844Z,20.80
2022-10-17T17:25:23.382Z,20.70
2022-10-17T17:30:20.296Z,20.60
2022-10-17T17:32:48.545Z,20.60
2022-10-17T17:35:16.960Z,20.50
2022-10-17T17:37:46.534Z,20.50
2022-10-17T17:40:15.063Z,20.40
2022-10-17T17:42:43.651Z,20.40
2022-10-17T17:45:12.707Z,20.30
2022-10-17T17:47:40.899Z,20.30
2022-10-17T17:50:09.993Z,20.30
2022-10-17T17:55:10.773Z,20.30
2022-10-17T18:00:09.690Z,20.20
2022-10-17T18:02:42.106Z,20.10
2022-10-17T18:05:12.599Z,20.20
2022-10-17T18:12:44.026Z,19.90
2022-10-17T18:15:13.319Z,19.80
2022-10-17T18:17:42.065Z,19.80
2022-10-17T18:20:11.616Z,19.70
2022-10-17T18:25:10.681Z,19.60
2022-10-17T18:30:09.377Z,19.60
2022-10-17T18:37:35.312Z,19.50
2022-10-17T18:40:03.669Z,19.40
2022-10-17T18:42:33.467Z,19.40
2022-10-17T18:45:03.202Z,19.40
2022-10-17T18:47:31.648Z,19.40
2022-10-17T18:59:56.029Z,19.20
2022-10-17T19:14:49.629Z,19.10
2022-10-17T19:17:19.341Z,19.10
2022-10-17T19:27:15.722Z,19.00
2022-10-17T19:29:44.042Z,18.90
2022-10-17T19:34:48.772Z,18.90
2022-10-17T19:37:16.996Z,18.80
2022-10-17T19:39:45.190Z,18.80
2022-10-17T19:44:41.913Z,18.70
2022-10-17T19:52:08.696Z,18.70
2022-10-17T20:02:07.752Z,18.60
2022-10-17T20:04:39.431Z,18.60
2022-10-17T20:07:12.061Z,18.60
2022-10-17T20:09:40.295Z,18.50
2022-10-17T20:17:09.499Z,18.50
2022-10-17T20:19:37.670Z,18.40
2022-10-17T20:22:05.922Z,18.40
2022-10-17T20:24:35.453Z,18.40
2022-10-17T20:34:34.704Z,18.40
2022-10-17T20:39:31.909Z,18.30
2022-10-17T20:42:02.038Z,18.30
2022-10-17T20:49:32.290Z,18.30
2022-10-17T20:54:30.007Z,18.30
2022-10-17T20:59:34.492Z,18.20
2022-10-17T21:02:03.235Z,18.20
2022-10-17T21:04:47.652Z,18.20
2022-10-17T21:15:06.865Z,18.10
2022-10-17T21:32:40.261Z,17.90
2022-10-17T21:37:44.209Z,17.80
2022-10-17T21:40:13.869Z,17.80
2022-10-17T21:45:15.717Z,17.70
2022-10-17T21:48:11.719Z,17.70
2022-10-17T21:50:38.259Z,17.60
2022-10-17T21:53:06.468Z,17.60
2022-10-17T21:55:37.306Z,17.60
2022-10-17T22:03:05.828Z,17.60
2022-10-17T22:08:02.827Z,17.50
2022-10-17T22:20:27.201Z,17.40
2022-10-17T22:22:55.429Z,17.40
2022-10-17T22:37:48.469Z,17.50
2022-10-17T22:40:17.124Z,17.40
2022-10-17T22:52:39.830Z,17.40
2022-10-17T22:55:10.663Z,17.40
2022-10-17T23:00:11.690Z,17.30
2022-10-17T23:02:40.336Z,17.30
2022-10-17T23:10:07.632Z,17.30
2022-10-17T23:12:37.215Z,17.30
2022-10-17T23:15:06.564Z,17.30
2022-10-17T23:25:01.528Z,17.20
2022-10-17T23:30:06.378Z,17.20
2022-10-17T23:44:58.590Z,17.30
2022-10-17T23:47:28.429Z,17.30
2022-10-17T23:49:56.781Z,17.30
